sensor_id;sensor_type;location;lat;lon;timestamp;temperature;humidity
15013;DHT22;7603;49.432;11.418;2024-01-15T00:01:21;-3.80;99.90
15013;DHT22;7603;49.432;11.418;2024-01-15T00:03:47;-3.80;99.90
15013;DHT22;7603;49.432;11.418;2024-01-15T00:06:12;-3.80;99.90
15013;DHT22;7603;49.432;11.418;2024-01-15T00:08:38;-3.80;99.90
15013;DHT22;7603;49.432;11.418;2024-01-15T00:11:03;-3.80;99.90
15013;DHT22;7603;49.432;11.418;2024-01-15T00:13:29;-3.90;99.90
15013;DHT22;7603;49.432;11.418;2024-01-15T00:15:55;-3.90;99.90
15013;DHT22;7603;49.432;11.418;2024-01-15T00:18:20;-3.90;99.90
15013;DHT22;7603;49.432;11.418;2024-01-15T00:20:46;-3.90;99.90
15013;DHT22;7603;49.432;11.418;2024-01-15T00:23:11;-3.90;99.90
15013;DHT22;7603;49.432;11.418;2024-01-15T00:25:37;-3.90;99.90
15013;DHT22;7603;49.432;11.418;2024-01-15T00:28:03;-3.90;99.90
15013;DHT22;7603;49.432;11.418;2024-01-15T00:30:29;-3.90;99.90
15013;DHT22;7603;49.432;11.418;2024-01-15T00:32:54;-3.90;99.90
15013;DHT22;7603;49.432;11.418;2024-01-15T00:35:20;-3.80;99.90
15013;DHT22;7603;49.432;11.418;2024-01-15T00:37:45;-3.80;99.90
15013;DHT22;7603;49.432;11.418;2024-01-15T00:40:11;-3.90;99.90
15013;DHT22;7603;49.432;11.418;2024-01-15T00:42:37;-3.90;99.90
15013;DHT22;7603;49.432;11.418;2024-01-15T00:45:03;-3.90;99.90
15013;DHT22;7603;49.432;11.418;2024-01-15T00:47:30;-3.90;99.90
15013;DHT22;7603;49.432;11.418;2024-01-15T00:49:56;-3.90;99.90
15013;DHT22;7603;49.432;11.418;2024-01-15T00:52:21;-3.90;99.90
15013;DHT22;7603;49.432;11.418;2024-01-15T00:54:47;-3.90;99.90
15013;DHT22;7603;49.432;11.418;2024-01-15T00:57:13;-3.90;99.90
15013;DHT22;7603;49.432;11.418;2024-01-15T00:59:38;-3.90;99.90
15013;DHT22;7603;49.432;11.418;2024-01-15T01:02:04;-3.90;99.90
15013;DHT22;7603;49.432;11.418;2024-01-15T01:04:30;-3.90;99.90
15013;DHT22;7603;49.432;11.418;2024-01-15T01:06:56;-3.90;99.90
15013;DHT22;7603;49.432;11.418;2024-01-15T01:09:21;-3.90;99.90
15013;DHT22;7603;49.432;11.418;2024-01-15T01:11:47;-3.90;99.90
15013;DHT22;7603;49.432;11.418;2024-01-15T01:14:12;-3.90;99.90
15013;DHT22;7603;49.432;11.418;2024-01-15T01:16:38;-3.90;99.90
15013;DHT22;7603;49.432;11.418;2024-01-15T01:19:05;-3.90;99.90
15013;DHT22;7603;49.432;11.418;2024-01-15T01:21:32;-3.90;99.90
15013;DHT22;7603;49.432;11.418;2024-01-15T01:23:58;-3.90;99.90
15013;DHT22;7603;49.432;11.418;2024-01-15T01:26:23;-3.90;99.90
15013;DHT22;7603;49.432;11.418;2024-01-15T01:28:49;-3.90;99.90
15013;DHT22;7603;49.432;11.418;2024-01-15T01:31:15;-3.90;99.90
15013;DHT22;7603;49.432;11.418;2024-01-15T01:33:42;-3.90;99.90
15013;DHT22;7603;49.432;11.418;2024-01-15T01:36:09;-3.90;99.90
15013;DHT22;7603;49.432;11.418;2024-01-15T01:38:35;-3.90;99.90
15013;DHT22;7603;49.432;11.418;2024-01-15T01:41:01;-3.90;99.90
15013;DHT22;7603;49.432;11.418;2024-01-15T01:43:26;-3.80;99.90
15013;DHT22;7603;49.432;11.418;2024-01-15T01:45:52;-3.80;99.90
15013;DHT22;7603;49.432;11.418;2024-01-15T01:48:20;-3.80;99.90
15013;DHT22;7603;49.432;11.418;2024-01-15T01:50:45;-3.80;99.90
15013;DHT22;7603;49.432;11.418;2024-01-15T01:53:11;-3.80;99.90
15013;DHT22;7603;49.432;11.418;2024-01-15T01:55:38;-3.80;99.90
15013;DHT22;7603;49.432;11.418;2024-01-15T01:58:04;-3.80;99.90
15013;DHT22;7603;49.432;11.418;2024-01-15T02:00:31;-3.80;99.90
15013;DHT22;7603;49.432;11.418;2024-01-15T02:02:57;-3.60;99.90
15013;DHT22;7603;49.432;11.418;2024-01-15T02:05:23;-3.70;99.90
15013;DHT22;7603;49.432;11.418;2024-01-15T02:07:48;-3.70;99.90
15013;DHT22;7603;49.432;11.418;2024-01-15T02:10:14;-3.70;99.90
15013;DHT22;7603;49.432;11.418;2024-01-15T02:12:40;-3.70;99.90
15013;DHT22;7603;49.432;11.418;2024-01-15T02:15:06;-3.70;99.90
15013;DHT22;7603;49.432;11.418;2024-01-15T02:17:32;-3.60;99.90
15013;DHT22;7603;49.432;11.418;2024-01-15T02:19:57;-3.60;99.90
15013;DHT22;7603;49.432;11.418;2024-01-15T02:22:23;-3.60;99.90
15013;DHT22;7603;49.432;11.418;2024-01-15T02:24:48;-3.60;99.90
15013;DHT22;7603;49.432;11.418;2024-01-15T02:27:14;-3.60;99.90
15013;DHT22;7603;49.432;11.418;2024-01-15T02:29:40;-3.60;99.90
15013;DHT22;7603;49.432;11.418;2024-01-15T02:32:06;-3.60;99.90
15013;DHT22;7603;49.432;11.418;2024-01-15T02:34:34;-3.60;99.90
15013;DHT22;7603;49.432;11.418;2024-01-15T02:37:00;-3.50;99.90
15013;DHT22;7603;49.432;11.418;2024-01-15T02:39:25;-3.50;99.90
15013;DHT22;7603;49.432;11.418;2024-01-15T02:41:51;-3.50;99.90
15013;DHT22;7603;49.432;11.418;2024-01-15T02:44:17;-3.50;99.90
15013;DHT22;7603;49.432;11.418;2024-01-15T02:46:42;-3.40;99.90
15013;DHT22;7603;49.432;11.418;2024-01-15T02:49:08;-3.50;99.90
15013;DHT22;7603;49.432;11.418;2024-01-15T02:51:34;-3.40;99.90
15013;DHT22;7603;49.432;11.418;2024-01-15T02:53:59;-3.40;99.90
15013;DHT22;7603;49.432;11.418;2024-01-15T02:56:25;-3.40;99.90
15013;DHT22;7603;49.432;11.418;2024-01-15T02:58:51;-3.40;99.90
15013;DHT22;7603;49.432;11.418;2024-01-15T03:01:19;-3.30;99.90
15013;DHT22;7603;49.432;11.418;2024-01-15T03:03:45;-3.30;99.90
15013;DHT22;7603;49.432;11.418;2024-01-15T03:06:10;-3.30;99.90
15013;DHT22;7603;49.432;11.418;2024-01-15T03:08:36;-3.30;99.90
15013;DHT22;7603;49.432;11.418;2024-01-15T03:11:02;-3.20;99.90
15013;DHT22;7603;49.432;11.418;2024-01-15T03:13:27;-3.20;99.90
15013;DHT22;7603;49.432;11.418;2024-01-15T03:15:53;-3.20;99.90
15013;DHT22;7603;49.432;11.418;2024-01-15T03:18:19;-3.20;99.90
15013;DHT22;7603;49.432;11.418;2024-01-15T03:20:44;-3.20;99.90
15013;DHT22;7603;49.432;11.418;2024-01-15T03:23:10;-3.10;99.90
15013;DHT22;7603;49.432;11.418;2024-01-15T03:25:35;-3.10;99.90
15013;DHT22;7603;49.432;11.418;2024-01-15T03:28:01;-3.10;99.90
15013;DHT22;7603;49.432;11.418;2024-01-15T03:30:27;-3.10;99.90
15013;DHT22;7603;49.432;11.418;2024-01-15T03:32:52;-3.00;99.90
15013;DHT22;7603;49.432;11.418;2024-01-15T03:35:18;-2.90;99.90
15013;DHT22;7603;49.432;11.418;2024-01-15T03:37:44;-3.00;99.90
15013;DHT22;7603;49.432;11.418;2024-01-15T03:40:10;-3.00;99.90
15013;DHT22;7603;49.432;11.418;2024-01-15T03:42:35;-3.00;99.90
15013;DHT22;7603;49.432;11.418;2024-01-15T03:45:01;-3.00;99.90
15013;DHT22;7603;49.432;11.418;2024-01-15T03:47:27;-3.00;99.90
15013;DHT22;7603;49.432;11.418;2024-01-15T03:49:52;-3.00;99.90
15013;DHT22;7603;49.432;11.418;2024-01-15T03:52:18;-2.90;99.90
15013;DHT22;7603;49.432;11.418;2024-01-15T03:54:44;-2.90;99.90
15013;DHT22;7603;49.432;11.418;2024-01-15T03:57:09;-2.90;99.90
15013;DHT22;7603;49.432;11.418;2024-01-15T03:59:35;-2.90;99.90
15013;DHT22;7603;49.432;11.418;2024-01-15T04:02:00;-2.90;99.90
15013;DHT22;7603;49.432;11.418;2024-01-15T04:04:26;-2.90;99.90
15013;DHT22;7603;49.432;11.418;2024-01-15T04:06:51;-2.90;99.90
15013;DHT22;7603;49.432;11.418;2024-01-15T04:09:17;-2.90;99.90
15013;DHT22;7603;49.432;11.418;2024-01-15T04:11:43;-2.90;99.90
15013;DHT22;7603;49.432;11.418;2024-01-15T04:14:08;-2.90;99.90
15013;DHT22;7603;49.432;11.418;2024-01-15T04:16:34;-2.90;99.90
15013;DHT22;7603;49.432;11.418;2024-01-15T04:19:00;-2.80;99.90
15013;DHT22;7603;49.432;11.418;2024-01-15T04:21:25;-2.80;99.90
15013;DHT22;7603;49.432;11.418;2024-01-15T04:23:51;-2.70;99.90
15013;DHT22;7603;49.432;11.418;2024-01-15T04:26:16;-2.70;99.90
15013;DHT22;7603;49.432;11.418;2024-01-15T04:28:42;-2.70;99.90
15013;DHT22;7603;49.432;11.418;2024-01-15T04:31:07;-2.70;99.90
15013;DHT22;7603;49.432;11.418;2024-01-15T04:33:33;-2.70;99.90
15013;DHT22;7603;49.432;11.418;2024-01-15T04:36:02;-2.70;99.90
15013;DHT22;7603;49.432;11.418;2024-01-15T04:38:28;-2.60;99.90
15013;DHT22;7603;49.432;11.418;2024-01-15T04:40:54;-2.60;99.90
15013;DHT22;7603;49.432;11.418;2024-01-15T04:43:19;-2.60;99.90
15013;DHT22;7603;49.432;11.418;2024-01-15T04:45:45;-2.60;99.90
15013;DHT22;7603;49.432;11.418;2024-01-15T04:48:11;-2.60;99.90
15013;DHT22;7603;49.432;11.418;2024-01-15T04:50:36;-2.60;99.90
15013;DHT22;7603;49.432;11.418;2024-01-15T04:53:02;-2.60;99.90
15013;DHT22;7603;49.432;11.418;2024-01-15T04:55:28;-2.60;99.90
15013;DHT22;7603;49.432;11.418;2024-01-15T04:57:53;-2.50;99.90
15013;DHT22;7603;49.432;11.418;2024-01-15T05:00:19;-2.50;99.90
15013;DHT22;7603;49.432;11.418;2024-01-15T05:02:45;-2.60;99.90
15013;DHT22;7603;49.432;11.418;2024-01-15T05:05:10;-2.50;99.90
15013;DHT22;7603;49.432;11.418;2024-01-15T05:07:36;-2.50;99.90
15013;DHT22;7603;49.432;11.418;2024-01-15T05:10:01;-2.60;99.90
15013;DHT22;7603;49.432;11.418;2024-01-15T05:12:27;-2.50;99.90
15013;DHT22;7603;49.432;11.418;2024-01-15T05:14:53;-2.50;99.90
15013;DHT22;7603;49.432;11.418;2024-01-15T05:17:19;-2.50;99.90
15013;DHT22;7603;49.432;11.418;2024-01-15T05:19:44;-2.50;99.90
15013;DHT22;7603;49.432;11.418;2024-01-15T05:22:10;-2.50;99.90
15013;DHT22;7603;49.432;11.418;2024-01-15T05:24:35;-2.50;99.90
15013;DHT22;7603;49.432;11.418;2024-01-15T05:27:01;-2.40;99.90
15013;DHT22;7603;49.432;11.418;2024-01-15T05:29:27;-2.40;99.90
15013;DHT22;7603;49.432;11.418;2024-01-15T05:31:52;-2.30;99.90
15013;DHT22;7603;49.432;11.418;2024-01-15T05:34:18;-2.40;99.90
15013;DHT22;7603;49.432;11.418;2024-01-15T05:36:43;-2.40;99.90
15013;DHT22;7603;49.432;11.418;2024-01-15T05:39:09;-2.30;99.90
15013;DHT22;7603;49.432;11.418;2024-01-15T05:41:35;-2.30;99.90
15013;DHT22;7603;49.432;11.418;2024-01-15T05:44:00;-2.30;99.90
15013;DHT22;7603;49.432;11.418;2024-01-15T05:46:26;-2.30;99.90
15013;DHT22;7603;49.432;11.418;2024-01-15T05:48:52;-2.30;99.90
15013;DHT22;7603;49.432;11.418;2024-01-15T05:51:17;-2.20;99.90
15013;DHT22;7603;49.432;11.418;2024-01-15T05:53:43;-2.20;99.90
15013;DHT22;7603;49.432;11.418;2024-01-15T05:56:10;-2.20;99.90
15013;DHT22;7603;49.432;11.418;2024-01-15T05:58:35;-2.20;99.90
15013;DHT22;7603;49.432;11.418;2024-01-15T06:01:01;-2.20;99.90
15013;DHT22;7603;49.432;11.418;2024-01-15T06:03:27;-2.10;99.90
15013;DHT22;7603;49.432;11.418;2024-01-15T06:05:52;-2.10;99.90
15013;DHT22;7603;49.432;11.418;2024-01-15T06:08:18;-2.10;99.90
15013;DHT22;7603;49.432;11.418;2024-01-15T06:10:44;-2.20;99.90
15013;DHT22;7603;49.432;11.418;2024-01-15T06:13:10;-2.10;99.90
15013;DHT22;7603;49.432;11.418;2024-01-15T06:15:35;-2.10;99.90
15013;DHT22;7603;49.432;11.418;2024-01-15T06:18:01;-2.00;99.90
15013;DHT22;7603;49.432;11.418;2024-01-15T06:20:27;-2.10;99.90
15013;DHT22;7603;49.432;11.418;2024-01-15T06:22:52;-2.10;99.90
15013;DHT22;7603;49.432;11.418;2024-01-15T06:25:18;-2.10;99.90
15013;DHT22;7603;49.432;11.418;2024-01-15T06:27:43;-2.10;99.90
15013;DHT22;7603;49.432;11.418;2024-01-15T06:30:10;-2.10;99.90
15013;DHT22;7603;49.432;11.418;2024-01-15T06:32:36;-2.10;99.90
15013;DHT22;7603;49.432;11.418;2024-01-15T06:35:01;-2.10;99.90
15013;DHT22;7603;49.432;11.418;2024-01-15T06:37:27;-2.00;99.90
15013;DHT22;7603;49.432;11.418;2024-01-15T06:39:52;-2.00;99.90
15013;DHT22;7603;49.432;11.418;2024-01-15T06:42:18;-2.00;99.90
15013;DHT22;7603;49.432;11.418;2024-01-15T06:44:44;-2.00;99.90
15013;DHT22;7603;49.432;11.418;2024-01-15T06:47:10;-2.00;99.90
15013;DHT22;7603;49.432;11.418;2024-01-15T06:49:36;-2.00;99.90
15013;DHT22;7603;49.432;11.418;2024-01-15T06:52:01;-2.00;99.90
15013;DHT22;7603;49.432;11.418;2024-01-15T06:54:27;-2.00;99.90
15013;DHT22;7603;49.432;11.418;2024-01-15T06:56:53;-2.00;99.90
15013;DHT22;7603;49.432;11.418;2024-01-15T06:59:18;-1.90;99.90
15013;DHT22;7603;49.432;11.418;2024-01-15T07:01:44;-2.00;99.90
15013;DHT22;7603;49.432;11.418;2024-01-15T07:04:10;-1.90;99.90
15013;DHT22;7603;49.432;11.418;2024-01-15T07:06:35;-1.90;99.90
15013;DHT22;7603;49.432;11.418;2024-01-15T07:09:01;-1.90;99.90
15013;DHT22;7603;49.432;11.418;2024-01-15T07:11:26;-1.90;99.90
15013;DHT22;7603;49.432;11.418;2024-01-15T07:13:52;-1.90;99.90
15013;DHT22;7603;49.432;11.418;2024-01-15T07:16:18;-2.00;99.90
15013;DHT22;7603;49.432;11.418;2024-01-15T07:18:43;-1.90;99.90
15013;DHT22;7603;49.432;11.418;2024-01-15T07:21:09;-1.90;99.90
15013;DHT22;7603;49.432;11.418;2024-01-15T07:23:34;-1.90;99.90
15013;DHT22;7603;49.432;11.418;2024-01-15T07:26:00;-1.80;99.90
15013;DHT22;7603;49.432;11.418;2024-01-15T07:28:28;-1.80;99.90
15013;DHT22;7603;49.432;11.418;2024-01-15T07:30:54;-1.80;99.90
15013;DHT22;7603;49.432;11.418;2024-01-15T07:33:20;-1.80;99.90
15013;DHT22;7603;49.432;11.418;2024-01-15T07:35:45;-1.80;99.90
15013;DHT22;7603;49.432;11.418;2024-01-15T07:38:12;-1.80;99.90
15013;DHT22;7603;49.432;11.418;2024-01-15T07:40:37;-1.70;99.90
15013;DHT22;7603;49.432;11.418;2024-01-15T07:43:03;-1.80;99.90
15013;DHT22;7603;49.432;11.418;2024-01-15T07:45:29;-1.80;99.90
15013;DHT22;7603;49.432;11.418;2024-01-15T07:47:55;-1.80;99.90
15013;DHT22;7603;49.432;11.418;2024-01-15T07:50:21;-1.80;99.90
15013;DHT22;7603;49.432;11.418;2024-01-15T07:52:46;-1.80;99.90
15013;DHT22;7603;49.432;11.418;2024-01-15T07:55:12;-1.80;99.90
15013;DHT22;7603;49.432;11.418;2024-01-15T07:57:38;-1.70;99.90
15013;DHT22;7603;49.432;11.418;2024-01-15T08:00:04;-1.70;99.90
15013;DHT22;7603;49.432;11.418;2024-01-15T08:02:30;-1.60;99.90
15013;DHT22;7603;49.432;11.418;2024-01-15T08:04:57;-1.60;99.90
15013;DHT22;7603;49.432;11.418;2024-01-15T08:07:24;-1.60;99.90
15013;DHT22;7603;49.432;11.418;2024-01-15T08:09:51;-1.70;99.90
15013;DHT22;7603;49.432;11.418;2024-01-15T08:12:17;-1.60;99.90
15013;DHT22;7603;49.432;11.418;2024-01-15T08:14:43;-1.60;99.90
15013;DHT22;7603;49.432;11.418;2024-01-15T08:17:08;-1.60;99.90
15013;DHT22;7603;49.432;11.418;2024-01-15T08:19:34;-1.60;99.90
15013;DHT22;7603;49.432;11.418;2024-01-15T08:22:00;-1.50;99.90
15013;DHT22;7603;49.432;11.418;2024-01-15T08:24:25;-1.60;99.90
15013;DHT22;7603;49.432;11.418;2024-01-15T08:26:51;-1.60;99.90
15013;DHT22;7603;49.432;11.418;2024-01-15T08:29:17;-1.60;99.90
15013;DHT22;7603;49.432;11.418;2024-01-15T08:31:44;-1.50;99.90
15013;DHT22;7603;49.432;11.418;2024-01-15T08:34:09;-1.50;99.90
15013;DHT22;7603;49.432;11.418;2024-01-15T08:36:35;-1.30;99.90
15013;DHT22;7603;49.432;11.418;2024-01-15T08:39:01;-1.40;99.90
15013;DHT22;7603;49.432;11.418;2024-01-15T08:41:30;-1.40;99.90
15013;DHT22;7603;49.432;11.418;2024-01-15T08:43:56;-1.30;99.90
15013;DHT22;7603;49.432;11.418;2024-01-15T08:46:21;-1.30;99.90
15013;DHT22;7603;49.432;11.418;2024-01-15T08:48:47;-1.20;99.90
15013;DHT22;7603;49.432;11.418;2024-01-15T08:51:13;-1.30;99.90
15013;DHT22;7603;49.432;11.418;2024-01-15T08:53:38;-1.30;99.90
15013;DHT22;7603;49.432;11.418;2024-01-15T08:56:05;-1.20;99.90
15013;DHT22;7603;49.432;11.418;2024-01-15T08:58:31;-1.20;99.90
15013;DHT22;7603;49.432;11.418;2024-01-15T09:00:57;-1.10;99.90
15013;DHT22;7603;49.432;11.418;2024-01-15T09:03:22;-1.20;99.90
15013;DHT22;7603;49.432;11.418;2024-01-15T09:05:48;-1.10;99.90
15013;DHT22;7603;49.432;11.418;2024-01-15T09:08:15;-1.10;99.90
15013;DHT22;7603;49.432;11.418;2024-01-15T09:10:41;-1.00;99.90
15013;DHT22;7603;49.432;11.418;2024-01-15T09:13:06;-1.00;99.90
15013;DHT22;7603;49.432;11.418;2024-01-15T09:15:32;-1.10;99.90
15013;DHT22;7603;49.432;11.418;2024-01-15T09:17:58;-1.10;99.90
15013;DHT22;7603;49.432;11.418;2024-01-15T09:20:24;-1.10;99.90
15013;DHT22;7603;49.432;11.418;2024-01-15T09:22:51;-1.10;99.90
15013;DHT22;7603;49.432;11.418;2024-01-15T09:25:17;-1.10;99.90
15013;DHT22;7603;49.432;11.418;2024-01-15T09:27:42;-1.00;99.90
15013;DHT22;7603;49.432;11.418;2024-01-15T09:30:08;-1.00;99.90
15013;DHT22;7603;49.432;11.418;2024-01-15T09:32:34;-1.00;99.90
15013;DHT22;7603;49.432;11.418;2024-01-15T09:35:00;-0.90;99.90
15013;DHT22;7603;49.432;11.418;2024-01-15T09:37:25;-0.80;99.90
15013;DHT22;7603;49.432;11.418;2024-01-15T09:39:51;-0.90;99.90
15013;DHT22;7603;49.432;11.418;2024-01-15T09:42:17;-0.80;99.90
15013;DHT22;7603;49.432;11.418;2024-01-15T09:44:43;-0.80;99.90
15013;DHT22;7603;49.432;11.418;2024-01-15T09:47:10;-0.70;99.90
15013;DHT22;7603;49.432;11.418;2024-01-15T09:49:36;-0.60;99.90
15013;DHT22;7603;49.432;11.418;2024-01-15T09:52:03;-0.50;99.90
15013;DHT22;7603;49.432;11.418;2024-01-15T09:54:29;-0.50;99.90
15013;DHT22;7603;49.432;11.418;2024-01-15T09:56:55;-0.40;99.90
15013;DHT22;7603;49.432;11.418;2024-01-15T09:59:22;-0.40;99.90
15013;DHT22;7603;49.432;11.418;2024-01-15T10:01:50;-0.30;99.90
15013;DHT22;7603;49.432;11.418;2024-01-15T10:04:16;-0.30;99.90
15013;DHT22;7603;49.432;11.418;2024-01-15T10:06:45;-0.30;99.90
15013;DHT22;7603;49.432;11.418;2024-01-15T10:09:12;-0.40;99.90
15013;DHT22;7603;49.432;11.418;2024-01-15T10:11:44;-0.40;99.90
15013;DHT22;7603;49.432;11.418;2024-01-15T10:14:10;-0.40;99.90
15013;DHT22;7603;49.432;11.418;2024-01-15T10:16:39;-0.40;99.90
15013;DHT22;7603;49.432;11.418;2024-01-15T10:19:05;-0.50;99.90
15013;DHT22;7603;49.432;11.418;2024-01-15T10:21:32;-0.50;99.90
15013;DHT22;7603;49.432;11.418;2024-01-15T10:24:02;-0.50;99.90
15013;DHT22;7603;49.432;11.418;2024-01-15T10:26:28;-0.50;99.90
15013;DHT22;7603;49.432;11.418;2024-01-15T10:28:54;-0.60;99.90
15013;DHT22;7603;49.432;11.418;2024-01-15T10:31:20;-0.50;99.90
15013;DHT22;7603;49.432;11.418;2024-01-15T10:33:47;-0.50;99.90
15013;DHT22;7603;49.432;11.418;2024-01-15T10:36:14;-0.50;99.90
15013;DHT22;7603;49.432;11.418;2024-01-15T10:38:42;-0.50;99.90
15013;DHT22;7603;49.432;11.418;2024-01-15T10:41:08;-0.50;99.90
15013;DHT22;7603;49.432;11.418;2024-01-15T10:43:34;-0.60;99.90
15013;DHT22;7603;49.432;11.418;2024-01-15T10:45:59;-0.50;99.90
15013;DHT22;7603;49.432;11.418;2024-01-15T10:48:26;-0.60;99.90
15013;DHT22;7603;49.432;11.418;2024-01-15T10:50:54;-0.50;99.90
15013;DHT22;7603;49.432;11.418;2024-01-15T10:53:20;-0.50;99.90
15013;DHT22;7603;49.432;11.418;2024-01-15T10:55:47;-0.50;99.90
15013;DHT22;7603;49.432;11.418;2024-01-15T10:58:14;-0.50;99.90
15013;DHT22;7603;49.432;11.418;2024-01-15T11:00:41;-0.40;99.90
15013;DHT22;7603;49.432;11.418;2024-01-15T11:03:07;-0.30;99.90
15013;DHT22;7603;49.432;11.418;2024-01-15T11:05:39;-0.50;99.90
15013;DHT22;7603;49.432;11.418;2024-01-15T11:08:07;-0.40;99.90
15013;DHT22;7603;49.432;11.418;2024-01-15T11:16:09;-0.40;99.90
15013;DHT22;7603;49.432;11.418;2024-01-15T11:18:40;-0.40;99.90
15013;DHT22;7603;49.432;11.418;2024-01-15T11:23:46;-0.50;99.90
15013;DHT22;7603;49.432;11.418;2024-01-15T11:26:45;-0.50;99.90
15013;DHT22;7603;49.432;11.418;2024-01-15T11:34:21;-0.50;99.90
15013;DHT22;7603;49.432;11.418;2024-01-15T11:41:57;-0.30;99.90
15013;DHT22;7603;49.432;11.418;2024-01-15T11:44:23;-0.40;99.90
15013;DHT22;7603;49.432;11.418;2024-01-15T11:47:12;-0.30;99.90
15013;DHT22;7603;49.432;11.418;2024-01-15T11:50:00;-0.30;99.90
15013;DHT22;7603;49.432;11.418;2024-01-15T11:52:26;-0.20;99.90
15013;DHT22;7603;49.432;11.418;2024-01-15T11:55:14;-0.20;99.90
15013;DHT22;7603;49.432;11.418;2024-01-15T11:58:01;-0.10;99.90
15013;DHT22;7603;49.432;11.418;2024-01-15T12:00:29;-0.10;99.90
15013;DHT22;7603;49.432;11.418;2024-01-15T12:02:54;-0.20;99.90
15013;DHT22;7603;49.432;11.418;2024-01-15T12:05:22;-0.30;99.90
15013;DHT22;7603;49.432;11.418;2024-01-15T12:07:49;-0.30;99.90
15013;DHT22;7603;49.432;11.418;2024-01-15T12:10:19;-0.30;99.90
15013;DHT22;7603;49.432;11.418;2024-01-15T12:15:21;-0.40;99.90
15013;DHT22;7603;49.432;11.418;2024-01-15T12:17:46;-0.40;99.90
15013;DHT22;7603;49.432;11.418;2024-01-15T12:20:13;-0.30;99.90
15013;DHT22;7603;49.432;11.418;2024-01-15T12:22:39;-0.40;99.90
15013;DHT22;7603;49.432;11.418;2024-01-15T12:25:05;-0.30;99.90
15013;DHT22;7603;49.432;11.418;2024-01-15T12:27:31;-0.40;99.90
15013;DHT22;7603;49.432;11.418;2024-01-15T12:29:58;-0.40;99.90
15013;DHT22;7603;49.432;11.418;2024-01-15T12:32:24;-0.40;99.90
15013;DHT22;7603;49.432;11.418;2024-01-15T12:34:50;-0.50;99.90
15013;DHT22;7603;49.432;11.418;2024-01-15T12:37:19;-0.40;99.90
15013;DHT22;7603;49.432;11.418;2024-01-15T12:39:46;-0.30;99.90
15013;DHT22;7603;49.432;11.418;2024-01-15T12:42:15;-0.40;99.90
15013;DHT22;7603;49.432;11.418;2024-01-15T12:44:42;-0.40;99.90
15013;DHT22;7603;49.432;11.418;2024-01-15T12:47:08;-0.40;99.90
15013;DHT22;7603;49.432;11.418;2024-01-15T12:49:36;-0.30;99.90
15013;DHT22;7603;49.432;11.418;2024-01-15T12:52:03;-0.20;99.90
15013;DHT22;7603;49.432;11.418;2024-01-15T12:54:29;-0.20;99.90
15013;DHT22;7603;49.432;11.418;2024-01-15T12:56:54;-0.10;99.90
15013;DHT22;7603;49.432;11.418;2024-01-15T12:59:20;-0.20;99.90
15013;DHT22;7603;49.432;11.418;2024-01-15T13:01:46;-0.20;99.90
15013;DHT22;7603;49.432;11.418;2024-01-15T13:04:20;-0.20;99.90
15013;DHT22;7603;49.432;11.418;2024-01-15T13:06:46;-0.20;99.90
15013;DHT22;7603;49.432;11.418;2024-01-15T13:09:12;-0.20;99.90
15013;DHT22;7603;49.432;11.418;2024-01-15T13:11:37;-0.30;99.90
15013;DHT22;7603;49.432;11.418;2024-01-15T13:14:03;-0.20;99.90
15013;DHT22;7603;49.432;11.418;2024-01-15T13:16:29;-0.20;99.90
15013;DHT22;7603;49.432;11.418;2024-01-15T13:18:55;-0.30;99.90
15013;DHT22;7603;49.432;11.418;2024-01-15T13:21:21;-0.30;99.90
15013;DHT22;7603;49.432;11.418;2024-01-15T13:23:47;-0.30;99.90
15013;DHT22;7603;49.432;11.418;2024-01-15T13:26:13;-0.30;99.90
15013;DHT22;7603;49.432;11.418;2024-01-15T13:28:39;-0.30;99.90
15013;DHT22;7603;49.432;11.418;2024-01-15T13:31:05;-0.30;99.90
15013;DHT22;7603;49.432;11.418;2024-01-15T13:33:31;-0.30;99.90
15013;DHT22;7603;49.432;11.418;2024-01-15T13:35:56;-0.30;99.90
15013;DHT22;7603;49.432;11.418;2024-01-15T13:38:22;-0.20;99.90
15013;DHT22;7603;49.432;11.418;2024-01-15T13:40:49;-0.30;99.90
15013;DHT22;7603;49.432;11.418;2024-01-15T13:43:15;-0.20;99.90
15013;DHT22;7603;49.432;11.418;2024-01-15T13:45:41;-0.20;99.90
15013;DHT22;7603;49.432;11.418;2024-01-15T13:48:07;-0.20;99.90
15013;DHT22;7603;49.432;11.418;2024-01-15T13:50:34;-0.20;99.90
15013;DHT22;7603;49.432;11.418;2024-01-15T13:53:01;-0.20;99.90
15013;DHT22;7603;49.432;11.418;2024-01-15T13:55:27;-0.20;99.90
15013;DHT22;7603;49.432;11.418;2024-01-15T13:57:54;-0.20;99.90
15013;DHT22;7603;49.432;11.418;2024-01-15T14:00:20;-0.30;99.90
15013;DHT22;7603;49.432;11.418;2024-01-15T14:02:46;-0.30;99.90
15013;DHT22;7603;49.432;11.418;2024-01-15T14:05:12;-0.30;99.90
15013;DHT22;7603;49.432;11.418;2024-01-15T14:07:40;-0.30;99.90
15013;DHT22;7603;49.432;11.418;2024-01-15T14:10:07;-0.20;99.90
15013;DHT22;7603;49.432;11.418;2024-01-15T14:12:34;-0.30;99.90
15013;DHT22;7603;49.432;11.418;2024-01-15T14:15:00;-0.30;99.90
15013;DHT22;7603;49.432;11.418;2024-01-15T14:17:27;-0.30;99.90
15013;DHT22;7603;49.432;11.418;2024-01-15T14:19:52;-0.40;99.90
15013;DHT22;7603;49.432;11.418;2024-01-15T14:22:18;-0.30;99.90
15013;DHT22;7603;49.432;11.418;2024-01-15T14:24:44;-0.30;99.90
15013;DHT22;7603;49.432;11.418;2024-01-15T14:27:10;-0.40;99.90
15013;DHT22;7603;49.432;11.418;2024-01-15T14:29:35;-0.40;99.90
15013;DHT22;7603;49.432;11.418;2024-01-15T14:32:01;-0.40;99.90
15013;DHT22;7603;49.432;11.418;2024-01-15T14:34:27;-0.40;99.90
15013;DHT22;7603;49.432;11.418;2024-01-15T14:36:53;-0.40;99.90
15013;DHT22;7603;49.432;11.418;2024-01-15T14:39:20;-0.40;99.90
15013;DHT22;7603;49.432;11.418;2024-01-15T14:41:46;-0.50;99.90
15013;DHT22;7603;49.432;11.418;2024-01-15T14:44:12;-0.50;99.90
15013;DHT22;7603;49.432;11.418;2024-01-15T14:46:39;-0.60;99.90
15013;DHT22;7603;49.432;11.418;2024-01-15T14:49:04;-0.40;99.90
15013;DHT22;7603;49.432;11.418;2024-01-15T14:51:30;-0.50;99.90
15013;DHT22;7603;49.432;11.418;2024-01-15T14:53:56;-0.50;99.90
15013;DHT22;7603;49.432;11.418;2024-01-15T14:56:21;-0.50;99.90
15013;DHT22;7603;49.432;11.418;2024-01-15T14:58:47;-0.50;99.90
15013;DHT22;7603;49.432;11.418;2024-01-15T15:01:13;-0.60;99.90
15013;DHT22;7603;49.432;11.418;2024-01-15T15:03:39;-0.50;99.90
15013;DHT22;7603;49.432;11.418;2024-01-15T15:06:05;-0.50;99.90
15013;DHT22;7603;49.432;11.418;2024-01-15T15:08:33;-0.50;99.90
15013;DHT22;7603;49.432;11.418;2024-01-15T15:10:58;-0.60;99.90
15013;DHT22;7603;49.432;11.418;2024-01-15T15:13:24;-0.60;99.90
15013;DHT22;7603;49.432;11.418;2024-01-15T15:15:51;-0.60;99.90
15013;DHT22;7603;49.432;11.418;2024-01-15T15:18:17;-0.70;99.90
15013;DHT22;7603;49.432;11.418;2024-01-15T15:20:43;-0.70;99.90
15013;DHT22;7603;49.432;11.418;2024-01-15T15:23:08;-0.70;99.90
15013;DHT22;7603;49.432;11.418;2024-01-15T15:25:36;-0.70;99.90
15013;DHT22;7603;49.432;11.418;2024-01-15T15:28:02;-0.70;99.90
15013;DHT22;7603;49.432;11.418;2024-01-15T15:30:30;-0.70;99.90
15013;DHT22;7603;49.432;11.418;2024-01-15T15:32:56;-0.70;99.90
15013;DHT22;7603;49.432;11.418;2024-01-15T15:35:22;-0.70;99.90
15013;DHT22;7603;49.432;11.418;2024-01-15T15:37:48;-0.70;99.90
15013;DHT22;7603;49.432;11.418;2024-01-15T15:40:14;-0.80;99.90
15013;DHT22;7603;49.432;11.418;2024-01-15T15:42:39;-0.70;99.90
15013;DHT22;7603;49.432;11.418;2024-01-15T15:45:05;-0.60;99.90